Time;durP1;ratioP1;P1;durP2;ratioP2;P2;SDS_P1;SDS_P2;PMS_P1;PMS_P2;Temp;Humidity;BMP_temperature;BMP_pressure;BME280_temperature;BME280_humidity;BME280_pressure;Samples;Min_cycle;Max_cycle;Signal;HPM_P1;HPM_P2
2023/05/22 00:00:34;;;;;;;7.50;6.70;;;;;;;19.35;63.72;99917.31;5037892;28;20413;-76
2023/05/22 00:03:07;;;;;;;8.25;6.55;;;;;;;19.30;63.85;99915.50;5035353;28;20402;-76
2023/05/22 00:05:33;;;;;;;10.13;6.63;;;;;;;19.26;64.09;99909.03;5047783;28;20510;-76
2023/05/22 00:07:58;;;;;;;7.63;6.90;;;;;;;19.26;63.87;99913.72;5040660;28;20459;-76
2023/05/22 00:10:24;;;;;;;7.20;6.50;;;;;;;19.22;63.95;99908.03;5036533;28;20438;-76
2023/05/22 00:12:49;;;;;;;7.67;6.87;;;;;;;19.14;64.17;99906.03;5035652;28;20483;-76
2023/05/22 00:15:14;;;;;;;10.10;6.40;;;;;;;19.09;64.16;99903.44;5036730;28;20782;-76
2023/05/22 00:17:41;;;;;;;6.77;6.17;;;;;;;19.06;64.48;99904.06;5039462;28;20446;-76
2023/05/22 00:20:09;;;;;;;8.45;7.00;;;;;;;19.05;64.52;99897.75;5035673;28;20434;-76
2023/05/22 00:22:35;;;;;;;7.25;6.55;;;;;;;19.03;64.73;99897.25;5036812;28;20440;-76
2023/05/22 00:25:04;;;;;;;7.18;6.53;;;;;;;19.02;64.72;99901.16;5036595;28;20856;-76
2023/05/22 00:27:29;;;;;;;8.30;6.85;;;;;;;19.02;64.71;99903.88;5039980;28;20385;-76
2023/05/22 00:29:55;;;;;;;7.30;6.40;;;;;;;19.02;64.95;99894.84;5038423;28;20404;-75
2023/05/22 00:32:20;;;;;;;8.07;7.23;;;;;;;19.00;64.97;99900.63;5036677;28;20778;-75
2023/05/22 00:34:45;;;;;;;6.88;6.28;;;;;;;19.01;64.94;99893.19;5036448;28;20471;-75
2023/05/22 00:37:11;;;;;;;9.73;6.97;;;;;;;19.01;65.10;99896.75;5038703;28;20735;-75
2023/05/22 00:39:37;;;;;;;9.33;6.80;;;;;;;18.98;65.19;99897.41;5038135;28;20413;-76
2023/05/22 00:42:03;;;;;;;9.23;7.00;;;;;;;18.96;65.10;99896.91;5036602;28;20398;-76
2023/05/22 00:44:28;;;;;;;6.87;6.23;;;;;;;18.96;65.04;99893.34;5030488;28;20391;-75
2023/05/22 00:46:53;;;;;;;8.67;6.23;;;;;;;18.99;65.10;99889.97;5037623;28;20391;-75
2023/05/22 00:49:18;;;;;;;7.93;7.13;;;;;;;18.97;65.23;99893.03;5039990;28;20415;-75
2023/05/22 00:51:44;;;;;;;7.67;6.73;;;;;;;18.97;65.17;99903.19;5034975;28;20753;-76
2023/05/22 00:54:11;;;;;;;8.07;7.20;;;;;;;18.96;65.26;99904.34;5036556;28;20427;-75
2023/05/22 00:56:36;;;;;;;7.38;6.68;;;;;;;18.94;65.29;99906.56;5036752;28;20771;-75
2023/05/22 00:59:03;;;;;;;8.23;7.20;;;;;;;18.89;65.54;99903.97;5040090;28;20478;-75
2023/05/22 01:01:32;;;;;;;8.63;6.88;;;;;;;18.86;65.50;99905.41;5037293;28;20877;-74
2023/05/22 01:04:02;;;;;;;7.60;6.82;;;;;;;18.84;65.68;99902.13;5034850;28;20395;-75
2023/05/22 01:06:30;;;;;;;8.15;7.10;;;;;;;18.84;65.81;99904.88;5036733;28;20387;-75
2023/05/22 01:08:56;;;;;;;8.10;7.30;;;;;;;18.81;65.48;99910.19;5037306;28;20396;-75
2023/05/22 01:11:30;;;;;;;8.07;7.13;;;;;;;18.79;65.82;99902.28;5036785;28;20867;-75
2023/05/22 01:14:42;;;;;;;7.95;6.93;;;;;;;18.78;65.93;99911.63;5036279;28;20783;-75
2023/05/22 01:17:44;;;;;;;9.43;7.20;;;;;;;18.77;66.19;99918.22;5061134;28;20473;-75
2023/05/22 01:20:19;;;;;;;7.55;6.88;;;;;;;18.78;66.04;99921.78;5033754;28;20506;-75
2023/05/22 01:23:01;;;;;;;7.97;7.18;;;;;;;18.76;65.78;99918.56;5026669;28;20460;-75
2023/05/22 01:26:01;;;;;;;8.13;6.80;;;;;;;18.74;65.86;99920.81;5032745;28;20888;-75
2023/05/22 01:28:51;;;;;;;8.33;7.43;;;;;;;18.69;65.77;99923.69;5041460;28;20398;-75
2023/05/22 01:31:18;;;;;;;11.23;7.85;;;;;;;18.61;66.08;99922.47;5029098;28;20433;-75
2023/05/22 01:33:59;;;;;;;9.32;7.45;;;;;;;18.53;66.44;99925.97;5038947;28;20410;-75
2023/05/22 01:36:29;;;;;;;9.10;7.87;;;;;;;18.49;66.67;99923.00;5033745;28;20382;-75
2023/05/22 01:38:57;;;;;;;11.03;7.50;;;;;;;18.45;66.94;99927.47;5037727;28;20415;-75
2023/05/22 01:41:28;;;;;;;8.93;7.30;;;;;;;18.45;67.06;99924.75;5030760;28;20503;-75
2023/05/22 01:43:53;;;;;;;7.65;6.95;;;;;;;18.41;67.10;99933.88;5039963;28;20392;-75
2023/05/22 01:46:18;;;;;;;8.80;7.43;;;;;;;18.47;66.70;99932.69;5043104;28;20389;-75
2023/05/22 01:48:44;;;;;;;10.80;7.40;;;;;;;18.51;66.61;99936.44;5039691;28;20480;-75
2023/05/22 01:51:25;;;;;;;9.63;7.20;;;;;;;18.55;66.56;99940.19;5039381;28;20742;-75
2023/05/22 01:54:04;;;;;;;9.75;7.38;;;;;;;18.56;66.34;99947.31;5040994;28;20391;-75
2023/05/22 01:56:44;;;;;;;10.20;7.53;;;;;;;18.51;66.37;99945.47;5040645;28;20424;-75
2023/05/22 01:59:24;;;;;;;7.90;6.38;;;;;;;18.48;66.21;99946.06;5035233;28;20411;-75
2023/05/22 02:01:51;;;;;;;10.43;6.70;;;;;;;18.46;65.80;99942.84;5040680;28;20389;-75
2023/05/22 02:04:20;;;;;;;9.77;7.28;;;;;;;18.39;65.68;99939.69;5041066;28;20392;-75
2023/05/22 02:06:46;;;;;;;8.50;6.95;;;;;;;18.37;65.85;99939.22;5038942;28;20392;-75
2023/05/22 02:09:14;;;;;;;8.07;7.27;;;;;;;18.30;65.79;99938.81;5034874;28;20991;-75
2023/05/22 02:11:41;;;;;;;7.32;6.60;;;;;;;18.27;66.03;99952.34;5039639;28;20748;-75
2023/05/22 02:14:07;;;;;;;7.97;7.03;;;;;;;18.25;66.08;99949.88;5035109;28;20429;-75
2023/05/22 02:16:33;;;;;;;8.63;6.47;;;;;;;18.23;66.30;99948.56;5038889;28;20478;-75
2023/05/22 02:19:05;;;;;;;7.47;6.77;;;;;;;18.22;66.54;99944.19;5038688;28;20407;-75
2023/05/22 02:21:34;;;;;;;7.18;6.32;;;;;;;18.26;66.62;99954.25;5041600;28;20424;-75
2023/05/22 02:23:59;;;;;;;8.00;7.20;;;;;;;18.28;66.76;99956.69;5040383;28;20857;-75
2023/05/22 02:26:25;;;;;;;8.80;7.10;;;;;;;18.26;66.76;99956.19;5038637;28;20402;-75
2023/05/22 02:28:50;;;;;;;8.43;7.53;;;;;;;18.28;66.66;99960.22;5038641;28;20409;-75
2023/05/22 02:31:17;;;;;;;9.88;7.55;;;;;;;18.37;66.60;99954.84;5040647;28;20426;-75
2023/05/22 02:33:42;;;;;;;8.45;6.90;;;;;;;18.40;66.40;99949.56;5040158;28;20468;-75
2023/05/22 02:36:09;;;;;;;10.18;8.25;;;;;;;18.31;66.80;99947.84;5038434;28;20482;-75
2023/05/22 02:38:35;;;;;;;9.98;7.72;;;;;;;18.19;67.23;99956.59;5038372;28;20472;-75
2023/05/22 02:41:00;;;;;;;9.50;7.88;;;;;;;18.20;67.67;99952.75;5029430;28;20407;-75
2023/05/22 02:43:26;;;;;;;10.93;8.50;;;;;;;18.25;67.35;99952.63;5041781;28;20391;-75
2023/05/22 02:45:51;;;;;;;8.63;7.73;;;;;;;18.38;67.22;99940.81;5038162;28;20403;-75
2023/05/22 02:48:16;;;;;;;9.23;8.33;;;;;;;18.40;67.35;99944.06;5038152;28;20482;-75
2023/05/22 02:50:43;;;;;;;9.20;8.27;;;;;;;18.44;67.38;99947.00;5034603;28;20417;-75
2023/05/22 02:53:08;;;;;;;10.10;8.18;;;;;;;18.43;67.30;99954.44;5040677;28;20429;-75
2023/05/22 02:55:33;;;;;;;9.73;8.67;;;;;;;18.37;67.82;99952.09;5038883;28;20912;-75
2023/05/22 02:57:59;;;;;;;9.93;8.83;;;;;;;18.33;68.06;99954.66;5038105;28;20490;-75
2023/05/22 03:00:24;;;;;;;13.33;8.87;;;;;;;18.25;68.59;99954.56;5037973;28;20429;-75
2023/05/22 03:02:50;;;;;;;11.13;8.73;;;;;;;18.20;68.89;99950.00;5040928;28;20397;-75
2023/05/22 03:05:16;;;;;;;9.20;8.30;;;;;;;18.20;68.95;99951.94;5039797;28;20472;-75
2023/05/22 03:07:42;;;;;;;11.10;9.90;;;;;;;18.18;69.29;99952.22;5037772;28;20391;-75
2023/05/22 03:10:07;;;;;;;9.93;8.90;;;;;;;18.13;69.61;99953.16;5027244;28;20422;-75
2023/05/22 03:12:32;;;;;;;10.10;8.82;;;;;;;18.13;69.94;99953.16;5039838;28;20893;-75
2023/05/22 03:14:58;;;;;;;13.03;10.40;;;;;;;18.11;70.32;99951.84;5040439;28;20765;-75
2023/05/22 03:17:25;;;;;;;10.30;8.63;;;;;;;18.07;70.35;99957.13;5038228;28;20403;-75
2023/05/22 03:19:51;;;;;;;13.05;10.48;;;;;;;18.12;70.60;99956.19;5037511;28;20422;-75
2023/05/22 03:22:17;;;;;;;13.27;9.60;;;;;;;18.11;70.80;99955.38;5038862;28;20751;-75
2023/05/22 03:24:42;;;;;;;14.05;10.80;;;;;;;18.14;70.82;99953.97;5041147;28;20394;-75
2023/05/22 03:27:08;;;;;;;11.48;10.25;;;;;;;18.13;70.95;99961.41;5037535;28;20789;-75
2023/05/22 03:29:33;;;;;;;12.00;10.50;;;;;;;18.12;71.34;99959.75;5037423;28;20400;-75
2023/05/22 03:31:58;;;;;;;12.90;10.50;;;;;;;18.11;71.69;99958.13;5036043;28;20403;-75
2023/05/22 03:34:25;;;;;;;12.53;10.43;;;;;;;18.14;71.66;99962.22;5041371;28;20405;-75
2023/05/22 03:36:51;;;;;;;12.53;10.50;;;;;;;18.19;71.52;99962.09;5038335;28;20377;-75
2023/05/22 03:39:16;;;;;;;12.87;10.63;;;;;;;18.15;71.93;99963.81;5034177;28;20912;-75
2023/05/22 03:41:41;;;;;;;12.50;10.40;;;;;;;18.19;71.87;99969.50;5032285;28;20422;-75
2023/05/22 03:44:06;;;;;;;11.10;9.83;;;;;;;18.20;71.83;99960.97;5039932;28;20936;-75
2023/05/22 03:46:32;;;;;;;12.87;10.23;;;;;;;18.22;71.94;99955.97;5039321;28;20393;-75
2023/05/22 03:48:57;;;;;;;13.83;10.80;;;;;;;18.22;72.02;99963.41;5036818;28;20419;-75
2023/05/22 03:51:22;;;;;;;11.25;9.88;;;;;;;18.13;72.33;99953.16;5037207;28;20901;-75
2023/05/22 03:53:47;;;;;;;14.03;9.93;;;;;;;18.09;72.62;99951.34;5038603;28;20393;-75
2023/05/22 03:56:13;;;;;;;13.80;10.77;;;;;;;18.13;72.72;99957.84;5040467;28;20451;-75
2023/05/22 03:58:41;;;;;;;11.63;10.33;;;;;;;18.12;72.93;99956.19;5036890;28;20442;-75
2023/05/22 04:01:08;;;;;;;11.82;10.48;;;;;;;18.08;72.91;99958.75;5036689;28;20457;-75
2023/05/22 04:03:34;;;;;;;11.35;10.07;;;;;;;18.04;73.25;99951.44;5031997;28;20418;-75
2023/05/22 04:05:59;;;;;;;14.03;10.67;;;;;;;17.99;73.54;99957.03;5032540;28;20417;-75
2023/05/22 04:08:26;;;;;;;11.83;10.57;;;;;;;17.99;73.60;99955.09;5023528;28;20886;-75
2023/05/22 04:10:53;;;;;;;13.32;10.90;;;;;;;18.01;73.57;99950.13;5026684;28;20411;-75
2023/05/22 04:13:18;;;;;;;13.55;11.10;;;;;;;18.06;73.70;99949.22;5029406;28;20415;-75
2023/05/22 04:15:45;;;;;;;14.97;11.00;;;;;;;18.12;73.64;99954.28;5024477;28;20422;-75
2023/05/22 04:18:10;;;;;;;12.55;10.60;;;;;;;18.16;73.58;99957.22;5035881;28;20869;-75
2023/05/22 04:20:36;;;;;;;13.02;10.48;;;;;;;18.21;73.29;99953.56;5036705;28;20502;-75
2023/05/22 04:23:02;;;;;;;11.67;10.47;;;;;;;18.23;73.29;99954.88;5036358;28;20401;-75
2023/05/22 04:25:27;;;;;;;16.00;10.87;;;;;;;18.23;73.44;99963.09;5039804;28;20400;-75
2023/05/22 04:27:52;;;;;;;12.37;9.90;;;;;;;18.26;73.47;99958.94;5035469;28;20403;-75
2023/05/22 04:30:17;;;;;;;11.37;9.90;;;;;;;18.26;73.55;99967.16;5033291;28;20878;-75
2023/05/22 04:32:43;;;;;;;14.67;10.67;;;;;;;18.25;73.59;99960.84;5030276;28;20395;-75
2023/05/22 04:35:11;;;;;;;11.45;10.05;;;;;;;18.21;74.09;99962.56;5034926;28;20770;-75
2023/05/22 04:37:36;;;;;;;10.65;9.52;;;;;;;18.22;74.17;99961.47;5029771;28;20912;-76
2023/05/22 04:40:06;;;;;;;11.80;10.05;;;;;;;18.20;74.42;99960.97;5035549;28;20415;-75
2023/05/22 04:42:33;;;;;;;14.52;10.52;;;;;;;18.26;74.33;99956.19;5030903;28;20403;-75
2023/05/22 04:44:58;;;;;;;14.27;10.63;;;;;;;18.34;74.24;99958.22;5036993;28;20739;-75
2023/05/22 04:47:24;;;;;;;12.07;10.33;;;;;;;18.31;74.40;99956.88;5029677;28;20562;-74
2023/05/22 04:49:50;;;;;;;14.83;10.60;;;;;;;18.31;74.71;99962.34;5030169;28;20898;-75
2023/05/22 04:52:15;;;;;;;11.65;10.40;;;;;;;18.38;74.69;99960.00;5031727;28;20769;-76
2023/05/22 04:54:43;;;;;;;13.98;10.68;;;;;;;18.43;74.67;99962.66;5025009;28;20414;-75
2023/05/22 04:57:08;;;;;;;14.73;10.80;;;;;;;18.42;74.55;99966.50;5031466;28;20881;-75
2023/05/22 04:59:38;;;;;;;12.17;10.60;;;;;;;18.45;74.61;99971.38;5040296;28;20427;-75
2023/05/22 05:02:06;;;;;;;12.32;10.55;;;;;;;18.47;74.71;99962.84;5029983;28;20478;-76
2023/05/22 05:04:32;;;;;;;12.10;9.93;;;;;;;18.54;74.58;99968.78;5025758;28;20435;-75
2023/05/22 05:06:57;;;;;;;13.45;10.77;;;;;;;18.58;74.54;99970.56;5031804;28;20433;-78
2023/05/22 05:09:23;;;;;;;12.17;10.57;;;;;;;18.66;74.41;99969.03;5032788;28;20407;-76
2023/05/22 05:11:49;;;;;;;14.18;11.02;;;;;;;18.69;74.49;99968.41;5039004;28;20413;-76
2023/05/22 05:14:15;;;;;;;14.13;10.70;;;;;;;18.73;74.13;99968.59;5046076;28;20451;-76
2023/05/22 05:16:40;;;;;;;12.65;10.20;;;;;;;18.75;74.03;99969.91;5043033;28;20461;-76
2023/05/22 05:19:06;;;;;;;16.27;11.00;;;;;;;18.77;73.91;99970.38;5049642;28;20485;-76
2023/05/22 05:21:31;;;;;;;13.00;10.33;;;;;;;18.82;73.78;99974.97;5034150;28;20418;-76
2023/05/22 05:23:56;;;;;;;11.98;10.10;;;;;;;18.81;73.78;99976.88;5033645;28;20407;-76
2023/05/22 05:26:22;;;;;;;12.80;10.43;;;;;;;18.85;73.93;99974.34;5035997;28;20403;-76
2023/05/22 05:28:48;;;;;;;11.43;9.85;;;;;;;18.86;73.72;99979.53;5047602;28;20752;-76
2023/05/22 05:31:14;;;;;;;12.75;10.65;;;;;;;18.85;73.92;99975.16;5040490;28;20397;-76
2023/05/22 05:33:39;;;;;;;11.03;9.83;;;;;;;18.85;74.00;99982.56;5043791;28;20423;-75
2023/05/22 05:36:05;;;;;;;12.00;9.87;;;;;;;18.82;74.39;99974.97;5046579;28;20412;-76
2023/05/22 05:38:30;;;;;;;13.27;9.82;;;;;;;18.85;74.38;99977.91;5045029;28;20488;-76
2023/05/22 05:40:55;;;;;;;14.17;9.23;;;;;;;18.82;74.63;99978.53;5037357;28;20422;-76
2023/05/22 05:43:22;;;;;;;11.13;9.40;;;;;;;18.83;74.83;99987.56;5050024;28;20454;-75
2023/05/22 05:45:47;;;;;;;12.65;9.43;;;;;;;18.84;74.57;99984.50;5043512;28;20883;-75
2023/05/22 05:48:12;;;;;;;12.00;9.97;;;;;;;18.80;75.06;99991.75;5047385;28;20400;-75
2023/05/22 05:50:37;;;;;;;10.33;9.00;;;;;;;18.85;75.02;99985.31;5036517;28;20429;-75
2023/05/22 05:53:04;;;;;;;10.57;9.50;;;;;;;18.90;75.00;99990.72;5038906;28;20799;-76
2023/05/22 05:55:31;;;;;;;10.35;9.25;;;;;;;18.91;75.09;99995.88;5043770;28;20433;-76
2023/05/22 05:57:56;;;;;;;10.30;9.20;;;;;;;18.97;74.89;99991.06;5043784;28;20382;-75
2023/05/22 06:00:22;;;;;;;10.53;8.90;;;;;;;19.01;74.74;100003.06;5046885;28;20508;-76
2023/05/22 06:02:47;;;;;;;11.07;8.70;;;;;;;19.06;74.56;99994.72;5051853;28;20920;-75
2023/05/22 06:05:14;;;;;;;11.40;9.73;;;;;;;19.09;74.80;99994.91;5044897;28;20411;-76
2023/05/22 06:07:39;;;;;;;11.25;8.50;;;;;;;19.11;74.77;99995.38;5037515;28;20395;-76
2023/05/22 06:10:06;;;;;;;9.77;8.75;;;;;;;19.17;74.49;99999.63;5046577;28;20884;-76
2023/05/22 06:12:31;;;;;;;11.18;9.65;;;;;;;19.25;74.55;100006.31;5051355;28;20389;-76
2023/05/22 06:14:57;;;;;;;12.60;9.65;;;;;;;19.36;73.95;100004.13;5040269;28;20964;-76
2023/05/22 06:17:22;;;;;;;11.97;9.40;;;;;;;19.43;74.03;100010.03;5038515;28;20435;-75
2023/05/22 06:19:48;;;;;;;14.60;9.45;;;;;;;19.50;73.87;100004.88;5031564;28;20419;-76
2023/05/22 06:22:13;;;;;;;12.27;8.67;;;;;;;19.60;73.56;99996.34;5036425;28;20411;-75
2023/05/22 06:24:38;;;;;;;10.80;9.40;;;;;;;19.67;73.21;100002.22;5037173;28;20410;-76
2023/05/22 06:27:04;;;;;;;10.00;8.83;;;;;;;19.73;73.22;100011.13;5043044;28;20615;-75
2023/05/22 06:29:29;;;;;;;10.93;9.00;;;;;;;19.77;73.00;100007.44;5036066;28;20439;-76
2023/05/22 06:31:55;;;;;;;13.63;8.70;;;;;;;19.76;72.98;100007.78;5034242;28;20406;-76
2023/05/22 06:34:21;;;;;;;11.50;8.23;;;;;;;19.80;73.01;100006.81;5046167;28;20415;-76
2023/05/22 06:36:49;;;;;;;10.23;9.10;;;;;;;19.89;72.78;100010.41;5035596;28;20862;-75
2023/05/22 06:39:15;;;;;;;10.82;9.05;;;;;;;19.93;72.54;100010.56;5045768;28;20896;-75
2023/05/22 06:41:40;;;;;;;12.40;8.88;;;;;;;19.83;72.95;100008.91;5032386;28;20391;-76
2023/05/22 06:44:05;;;;;;;11.07;9.10;;;;;;;19.87;73.00;100004.41;5028577;28;20915;-75
2023/05/22 06:46:30;;;;;;;12.77;8.87;;;;;;;19.92;72.84;100006.22;5043539;28;20385;-75
2023/05/22 06:48:56;;;;;;;9.90;8.30;;;;;;;19.98;72.67;100013.19;5031567;28;20446;-76
2023/05/22 06:51:23;;;;;;;10.77;8.87;;;;;;;20.01;72.39;100010.63;5033212;28;20415;-75
2023/05/22 06:53:48;;;;;;;9.93;8.70;;;;;;;19.98;72.46;100015.94;5049048;28;20385;-76
2023/05/22 06:56:13;;;;;;;11.70;8.87;;;;;;;19.99;72.56;100010.09;5047271;28;20463;-76
2023/05/22 06:58:38;;;;;;;11.10;9.00;;;;;;;20.02;72.61;100014.97;5036957;28;20446;-75
2023/05/22 07:01:04;;;;;;;10.43;8.73;;;;;;;20.07;72.42;100020.34;5036332;28;20494;-75
2023/05/22 07:03:29;;;;;;;8.75;7.90;;;;;;;20.13;72.25;100013.56;5047936;28;20770;-75
2023/05/22 07:05:56;;;;;;;9.80;7.80;;;;;;;20.22;72.04;100023.81;5040360;28;20480;-76
2023/05/22 07:08:22;;;;;;;9.18;7.72;;;;;;;20.32;71.55;100024.31;5048958;28;20390;-75
2023/05/22 07:10:47;;;;;;;8.25;7.43;;;;;;;20.38;71.28;100025.81;5038443;28;20411;-75
2023/05/22 07:13:12;;;;;;;10.47;7.97;;;;;;;20.46;71.02;100026.94;5037249;28;20399;-75
2023/05/22 07:15:38;;;;;;;8.37;7.10;;;;;;;20.56;70.48;100026.66;5042180;28;20872;-76
2023/05/22 07:18:03;;;;;;;8.57;7.10;;;;;;;20.64;70.04;100031.38;5050424;28;20393;-74
2023/05/22 07:20:28;;;;;;;8.65;7.35;;;;;;;20.70;69.74;100033.66;5050515;28;20485;-75
2023/05/22 07:22:53;;;;;;;10.50;7.43;;;;;;;20.75;69.41;100034.63;5043051;28;20400;-75
2023/05/22 07:25:19;;;;;;;8.30;7.50;;;;;;;20.73;69.53;100032.19;5037448;28;20467;-76
2023/05/22 07:27:44;;;;;;;9.43;6.93;;;;;;;20.72;69.45;100036.06;5050617;28;20852;-75
2023/05/22 07:30:10;;;;;;;7.88;6.97;;;;;;;20.75;69.41;100037.38;5036286;28;20402;-76
2023/05/22 07:32:35;;;;;;;8.03;6.40;;;;;;;20.74;69.60;100035.75;5027279;28;20400;-76
2023/05/22 07:35:00;;;;;;;7.57;6.83;;;;;;;20.77;69.28;100033.19;5037690;28;20402;-76
2023/05/22 07:37:26;;;;;;;8.00;6.78;;;;;;;20.79;69.02;100043.84;5032382;28;20533;-76
2023/05/22 07:39:51;;;;;;;7.20;6.47;;;;;;;20.79;68.97;100041.09;5040510;28;20741;-75
2023/05/22 07:42:17;;;;;;;6.00;5.50;;;;;;;20.83;68.60;100042.06;5044798;28;20456;-75
2023/05/22 07:44:42;;;;;;;7.87;5.93;;;;;;;20.87;68.06;100035.63;5047613;28;20881;-76
2023/05/22 07:47:07;;;;;;;7.03;6.20;;;;;;;20.92;67.87;100048.41;5050012;28;20390;-75
2023/05/22 07:49:33;;;;;;;6.83;6.23;;;;;;;20.99;67.76;100043.22;5045811;28;20667;-76
2023/05/22 07:51:58;;;;;;;7.67;5.93;;;;;;;21.10;67.62;100045.38;5048793;28;20421;-76
2023/05/22 07:54:26;;;;;;;6.63;5.93;;;;;;;21.27;67.33;100047.31;5036148;28;20470;-75
2023/05/22 07:56:51;;;;;;;7.10;6.40;;;;;;;21.40;66.91;100045.50;5026745;28;20930;-76
2023/05/22 07:59:18;;;;;;;7.70;6.13;;;;;;;21.42;66.63;100046.78;5038028;28;20413;-76
2023/05/22 08:01:46;;;;;;;8.80;6.78;;;;;;;21.51;66.24;100044.81;5037897;28;20455;-76
2023/05/22 08:04:11;;;;;;;8.23;6.22;;;;;;;21.59;66.03;100051.47;5048002;28;20938;-75
2023/05/22 08:06:38;;;;;;;10.00;6.60;;;;;;;21.60;65.69;100051.13;5030443;28;20405;-75
2023/05/22 08:09:03;;;;;;;8.38;6.68;;;;;;;21.63;65.40;100044.97;5044495;28;20401;-75
2023/05/22 08:11:29;;;;;;;9.77;6.97;;;;;;;21.64;65.12;100043.81;5035745;28;20417;-76
2023/05/22 08:13:55;;;;;;;8.27;7.20;;;;;;;21.69;65.02;100046.41;5035872;28;20489;-76
2023/05/22 08:16:20;;;;;;;11.32;6.97;;;;;;;21.76;65.03;100048.69;5047031;28;20987;-75
2023/05/22 08:18:46;;;;;;;10.30;7.57;;;;;;;21.96;64.71;100052.69;5049626;28;20416;-75
2023/05/22 08:21:11;;;;;;;8.20;6.80;;;;;;;22.15;64.13;100050.34;5049680;28;20393;-75
2023/05/22 08:23:37;;;;;;;7.97;7.17;;;;;;;22.32;63.65;100052.22;5035656;28;20452;-75
2023/05/22 08:26:03;;;;;;;7.70;6.78;;;;;;;22.39;63.36;100053.31;5047305;28;20391;-75
2023/05/22 08:28:28;;;;;;;8.57;7.18;;;;;;;22.41;63.22;100048.25;5045083;28;20393;-75
2023/05/22 08:30:54;;;;;;;7.43;6.73;;;;;;;22.40;63.24;100051.34;5042245;28;20737;-75
2023/05/22 08:33:19;;;;;;;8.27;6.40;;;;;;;22.39;63.33;100047.81;5053735;28;20405;-75
2023/05/22 08:35:44;;;;;;;7.07;6.37;;;;;;;22.58;63.06;100050.13;5048307;28;20398;-75
2023/05/22 08:38:10;;;;;;;6.80;6.20;;;;;;;22.65;62.46;100053.97;5039906;28;20485;-75
2023/05/22 08:40:37;;;;;;;8.13;6.70;;;;;;;22.84;61.65;100047.22;5038885;28;20751;-76
2023/05/22 08:43:04;;;;;;;7.00;6.30;;;;;;;23.05;60.89;100042.50;5032711;28;20967;-76
2023/05/22 08:45:32;;;;;;;8.63;6.85;;;;;;;23.25;60.14;100036.13;5049431;28;20467;-75
2023/05/22 08:47:59;;;;;;;7.95;6.55;;;;;;;23.34;60.18;100052.66;5033673;28;20897;-75
2023/05/22 08:50:24;;;;;;;8.75;6.50;;;;;;;23.40;59.93;100043.84;5041927;28;20417;-75
2023/05/22 08:52:51;;;;;;;7.67;6.87;;;;;;;23.59;58.83;100037.78;5052023;28;20926;-75
2023/05/22 08:55:18;;;;;;;7.43;6.67;;;;;;;23.59;59.38;100046.88;5051872;28;20415;-75
2023/05/22 08:57:44;;;;;;;9.63;6.95;;;;;;;23.76;59.23;100041.19;5039405;28;20397;-74
2023/05/22 09:00:10;;;;;;;7.63;6.93;;;;;;;23.77;59.30;100037.28;5043620;28;20926;-76
2023/05/22 09:02:37;;;;;;;7.22;6.53;;;;;;;23.78;59.18;100038.88;5052919;28;20404;-75
2023/05/22 09:05:05;;;;;;;8.68;7.25;;;;;;;23.80;58.47;100041.31;5037177;28;20398;-75
2023/05/22 09:07:31;;;;;;;9.00;7.10;;;;;;;23.90;58.15;100040.88;5038105;28;20765;-75
2023/05/22 09:09:56;;;;;;;9.47;6.73;;;;;;;24.06;57.55;100035.44;5052818;28;20398;-75
2023/05/22 09:12:21;;;;;;;9.37;6.23;;;;;;;24.11;58.38;100046.28;5047861;28;20482;-75
2023/05/22 09:14:46;;;;;;;10.60;6.30;;;;;;;24.33;58.15;100043.13;5052588;28;20400;-74
2023/05/22 09:17:15;;;;;;;9.43;7.07;;;;;;;24.50;57.57;100040.09;5050936;28;20419;-75
2023/05/22 09:19:44;;;;;;;8.30;6.78;;;;;;;24.73;56.99;100045.97;5052715;28;20468;-75
2023/05/22 09:22:10;;;;;;;9.80;7.68;;;;;;;25.13;56.02;100046.81;5045515;28;20412;-75
2023/05/22 09:24:45;;;;;;;7.00;6.40;;;;;;;25.63;54.76;100046.28;5051476;28;20405;-75
2023/05/22 09:27:11;;;;;;;9.48;6.50;;;;;;;25.86;54.61;100051.22;5039955;28;20413;-75
2023/05/22 09:29:50;;;;;;;8.90;6.38;;;;;;;25.85;54.12;100046.84;5043418;28;20487;-75
2023/05/22 09:32:17;;;;;;;8.07;6.93;;;;;;;25.89;53.11;100034.66;5046717;28;20395;-76
2023/05/22 09:34:43;;;;;;;10.65;7.35;;;;;;;26.22;52.44;100040.69;5047559;28;20403;-75
2023/05/22 09:37:10;;;;;;;8.65;6.65;;;;;;;26.60;51.98;100040.03;5036835;28;20680;-75
2023/05/22 09:39:40;;;;;;;7.60;6.90;;;;;;;26.96;51.29;100041.66;5042714;28;20787;-75
2023/05/22 09:42:07;;;;;;;10.27;7.43;;;;;;;27.32;50.37;100035.66;5051779;28;20390;-75
2023/05/22 09:44:32;;;;;;;8.52;7.68;;;;;;;27.66;49.93;100028.38;5050343;28;20381;-75
2023/05/22 09:46:58;;;;;;;11.18;7.40;;;;;;;27.92;48.45;100026.88;5049765;28;20488;-75
2023/05/22 09:49:23;;;;;;;10.48;7.75;;;;;;;28.08;48.87;100027.56;5041719;28;20405;-75
2023/05/22 09:51:53;;;;;;;8.38;7.55;;;;;;;28.17;48.56;100030.91;5052427;28;20882;-75
2023/05/22 09:54:20;;;;;;;9.45;8.18;;;;;;;28.38;48.08;100034.03;5036975;28;20387;-75
2023/05/22 09:56:47;;;;;;;13.20;11.90;;;;;;;28.95;47.02;100030.09;5030654;28;20884;-75
2023/05/22 09:59:18;;;;;;;16.77;15.35;;;;;;;29.36;46.06;100031.06;5038812;28;20406;-75
2023/05/22 10:01:44;;;;;;;1999.90;723.33;;;;;;;29.80;44.95;100029.13;5039506;28;20400;-75
2023/05/22 10:04:13;;;;;;;1999.90;978.17;;;;;;;29.44;45.64;100029.94;5034278;28;20438;-75
2023/05/22 10:06:39;;;;;;;1999.90;881.78;;;;;;;28.91;46.37;100025.69;5028965;28;20402;-75
2023/05/22 10:09:08;;;;;;;1999.90;899.50;;;;;;;28.97;46.27;100027.75;5035082;28;20399;-75
2023/05/22 10:11:34;;;;;;;1999.90;999.90;;;;;;;29.21;45.90;100024.47;5038173;28;21040;-75
2023/05/22 10:14:02;;;;;;;1999.90;609.22;;;;;;;29.39;46.04;100015.53;5047736;28;20480;-75
2023/05/22 10:16:28;;;;;;;1999.90;999.90;;;;;;;29.88;44.88;100018.06;5024913;28;20398;-75
2023/05/22 10:18:55;;;;;;;1999.90;999.90;;;;;;;30.19;44.14;100015.56;5035146;28;20577;-75
2023/05/22 10:21:21;;;;;;;1999.90;999.90;;;;;;;30.11;43.94;100013.06;5040665;28;20866;-75
2023/05/22 10:23:48;;;;;;;1999.90;999.90;;;;;;;30.14;44.88;100006.72;5035081;28;20418;-75
2023/05/22 10:26:15;;;;;;;1999.90;999.90;;;;;;;30.32;43.75;100010.47;5047716;28;20497;-74
2023/05/22 10:28:44;;;;;;;1999.90;999.90;;;;;;;30.48;43.80;100018.56;5044250;28;20858;-74
2023/05/22 10:31:32;;;;;;;1999.90;999.90;;;;;;;31.00;42.28;100012.50;5044998;28;20488;-75
2023/05/22 10:34:01;;;;;;;1800.60;831.83;;;;;;;31.68;40.64;100003.16;5031657;28;20399;-75
2023/05/22 10:36:50;;;;;;;1999.90;999.90;;;;;;;32.14;39.98;99992.00;5071861;28;20464;-75
2023/05/22 10:39:43;;;;;;;9.35;8.45;;;;;;;32.55;38.85;99991.53;5028579;28;20802;-75
2023/05/22 10:42:17;;;;;;;10.85;7.97;;;;;;;33.01;38.04;99988.63;5035643;28;20401;-75
2023/05/22 10:44:42;;;;;;;9.48;7.45;;;;;;;33.35;37.29;99986.88;5044439;28;20377;-75
2023/05/22 10:47:10;;;;;;;8.90;7.80;;;;;;;33.71;36.49;99987.47;5042628;28;20395;-75
2023/05/22 10:49:35;;;;;;;9.60;8.38;;;;;;;33.92;36.56;99993.72;5047255;28;20447;-75
2023/05/22 10:52:02;;;;;;;8.20;7.40;;;;;;;34.39;35.65;100002.59;5049795;28;20523;-75
2023/05/22 10:54:42;;;;;;;9.65;8.25;;;;;;;34.60;34.88;99987.53;5039612;28;20465;-75
2023/05/22 10:57:15;;;;;;;9.02;8.10;;;;;;;34.87;34.42;99989.25;5036666;28;20481;-75
2023/05/22 10:59:41;;;;;;;8.93;8.02;;;;;;;34.89;34.83;99989.63;5041043;28;20420;-75
2023/05/22 11:02:18;;;;;;;9.10;7.67;;;;;;;35.40;34.02;99985.75;5047425;28;20744;-75
2023/05/22 11:04:43;;;;;;;8.10;7.00;;;;;;;35.98;32.73;99982.88;5032941;28;20893;-75
2023/05/22 11:07:11;;;;;;;8.13;7.13;;;;;;;36.37;32.12;99978.19;5047242;28;20448;-75
2023/05/22 11:09:42;;;;;;;8.85;7.95;;;;;;;36.95;31.19;99978.72;5047747;28;20871;-75
2023/05/22 11:12:16;;;;;;;8.48;7.68;;;;;;;37.48;29.18;99971.16;5030150;28;20483;-75
2023/05/22 11:14:58;;;;;;;9.80;7.50;;;;;;;37.69;29.07;99967.78;5030057;28;20403;-75
2023/05/22 11:17:50;;;;;;;8.45;7.65;;;;;;;37.88;29.02;99964.09;5030916;28;20470;-75
2023/05/22 11:20:24;;;;;;;13.60;8.10;;;;;;;38.14;28.71;99967.91;5032197;28;20450;-74
2023/05/22 11:22:54;;;;;;;8.53;7.53;;;;;;;38.47;28.02;99957.38;5036952;28;20462;-73
2023/05/22 11:25:21;;;;;;;7.97;7.25;;;;;;;38.99;27.10;99963.56;5021689;28;20437;-75